createdAt,value
2022-08-10T00:04:32.774Z,61.09
2022-08-10T00:10:36.703Z,61.46
2022-08-10T00:16:41.640Z,61.07
2022-08-10T00:22:48.924Z,61.52
2022-08-10T00:29:00.920Z,61.03
2022-08-10T00:35:06.937Z,60.94
2022-08-10T00:41:10.497Z,60.96
2022-08-10T00:47:35.470Z,60.88
2022-08-10T00:53:40.000Z,60.93
2022-08-10T00:59:58.727Z,60.67
2022-08-10T01:06:17.055Z,60.89
2022-08-10T01:12:40.884Z,60.70
2022-08-10T01:18:54.674Z,61.13
2022-08-10T01:26:11.576Z,60.57
2022-08-10T01:32:05.291Z,60.51
2022-08-10T01:38:15.753Z,60.79
2022-08-10T01:44:25.510Z,60.42
2022-08-10T01:50:33.785Z,60.63
2022-08-10T01:56:59.562Z,60.51
2022-08-10T02:03:05.948Z,60.59
2022-08-10T02:09:15.494Z,60.70
2022-08-10T02:15:21.966Z,59.81
2022-08-10T02:21:26.998Z,60.24
2022-08-10T02:27:34.090Z,60.85
2022-08-10T02:33:39.841Z,59.42
2022-08-10T02:40:01.858Z,59.66
2022-08-10T02:46:10.709Z,59.83
2022-08-10T02:52:20.828Z,60.01
2022-08-10T02:58:29.697Z,59.16
2022-08-10T03:04:55.830Z,59.60
2022-08-10T03:11:04.995Z,59.52
2022-08-10T03:17:10.662Z,60.10
2022-08-10T03:23:19.113Z,59.51
2022-08-10T03:29:24.349Z,59.64
2022-08-10T03:35:28.866Z,59.40
2022-08-10T03:41:37.902Z,59.35
2022-08-10T03:47:44.182Z,59.67
2022-08-10T03:54:04.402Z,59.71
2022-08-10T04:00:13.130Z,60.48
2022-08-10T04:06:16.734Z,60.83
2022-08-10T04:12:20.694Z,60.52
2022-08-10T04:18:25.628Z,60.27
2022-08-10T04:24:33.583Z,60.54
2022-08-10T04:30:38.055Z,60.18
2022-08-10T04:36:44.087Z,64.07
2022-08-10T04:42:48.529Z,62.43
2022-08-10T04:48:59.768Z,62.72
2022-08-10T04:55:07.857Z,61.63
2022-08-10T05:01:11.517Z,61.63
2022-08-10T05:07:18.590Z,62.29
2022-08-10T05:13:23.705Z,62.63
2022-08-10T05:20:04.007Z,62.20
2022-08-10T05:25:50.893Z,62.61
2022-08-10T05:31:56.243Z,62.97
2022-08-10T05:38:12.165Z,62.19
2022-08-10T05:44:17.854Z,62.40
2022-08-10T05:50:25.362Z,62.41
2022-08-10T05:56:53.850Z,62.33
2022-08-10T06:02:57.158Z,61.87
2022-08-10T06:09:02.233Z,62.02
2022-08-10T06:15:10.210Z,61.53
2022-08-10T06:21:15.908Z,61.37
2022-08-10T06:27:20.826Z,61.34
2022-08-10T06:39:44.613Z,60.50
2022-08-10T06:46:07.543Z,61.04
2022-08-10T06:52:18.268Z,60.46
2022-08-10T06:58:26.897Z,60.62
2022-08-10T07:04:35.562Z,59.46
2022-08-10T07:10:41.376Z,59.40
2022-08-10T07:16:51.995Z,59.04
2022-08-10T07:23:01.505Z,58.37
2022-08-10T07:29:54.003Z,57.78
2022-08-10T07:35:52.056Z,57.36
2022-08-10T07:41:58.622Z,57.47
2022-08-10T07:48:07.990Z,57.57
2022-08-10T07:54:15.916Z,56.78
2022-08-10T08:00:22.584Z,56.11
2022-08-10T08:06:27.213Z,55.51
2022-08-10T08:12:36.916Z,55.61
2022-08-10T08:18:58.204Z,57.24
2022-08-10T08:25:12.916Z,57.72
2022-08-10T08:31:20.085Z,58.37
2022-08-10T08:38:31.941Z,58.59
2022-08-10T08:44:04.648Z,58.13
2022-08-10T08:50:17.467Z,58.88
2022-08-10T08:56:26.726Z,58.99
2022-08-10T09:02:54.478Z,58.83
2022-08-10T09:09:22.472Z,59.40
2022-08-10T09:15:39.632Z,58.99
2022-08-10T09:21:59.032Z,58.75
2022-08-10T09:28:21.235Z,58.14
2022-08-10T09:36:22.102Z,58.19
2022-08-10T09:41:14.874Z,58.04
2022-08-10T09:47:58.824Z,57.83
2022-08-10T09:54:09.407Z,57.21
2022-08-10T10:00:15.987Z,57.12
2022-08-10T10:06:27.882Z,57.41
2022-08-10T10:12:43.680Z,56.90
2022-08-10T10:18:55.468Z,57.08
2022-08-10T10:25:21.012Z,56.83
2022-08-10T10:31:31.774Z,56.58
2022-08-10T10:38:00.651Z,56.89
2022-08-10T10:44:12.337Z,57.34
2022-08-10T10:50:24.050Z,57.76
2022-08-10T10:56:44.865Z,58.09
2022-08-10T11:03:05.154Z,58.35
2022-08-10T11:10:03.877Z,58.19
2022-08-10T11:15:47.889Z,58.48
2022-08-10T11:22:02.802Z,58.02
2022-08-10T11:28:14.034Z,58.02
2022-08-10T11:34:48.316Z,58.40
2022-08-10T11:40:54.646Z,58.15
2022-08-10T11:47:06.162Z,57.68
2022-08-10T11:53:16.950Z,57.65
2022-08-10T11:59:42.145Z,57.44
2022-08-10T12:05:54.016Z,58.13
2022-08-10T12:12:00.318Z,57.70
2022-08-10T12:18:12.344Z,57.85
2022-08-10T12:24:25.053Z,57.22
2022-08-10T12:30:37.568Z,57.23
2022-08-10T12:36:44.047Z,56.72
2022-08-10T12:44:04.777Z,56.69
2022-08-10T12:49:33.489Z,56.04
2022-08-10T12:55:40.288Z,55.51
2022-08-10T13:02:07.727Z,55.07
2022-08-10T13:08:28.938Z,54.83
2022-08-10T13:14:36.817Z,54.03
2022-08-10T13:20:42.933Z,54.03
2022-08-10T13:27:25.234Z,53.45
2022-08-10T13:34:39.727Z,52.34
2022-08-10T13:39:58.886Z,52.51
2022-08-10T13:46:07.814Z,51.87
2022-08-10T13:52:29.470Z,51.71
2022-08-10T13:58:38.265Z,51.52
2022-08-10T14:04:46.137Z,51.02
2022-08-10T14:11:09.354Z,50.15
2022-08-10T14:17:22.138Z,49.74
2022-08-10T14:23:25.845Z,49.89
2022-08-10T14:29:31.194Z,50.03
2022-08-10T14:36:20.717Z,49.90
2022-08-10T14:42:25.202Z,48.14
2022-08-10T14:48:34.940Z,48.43
2022-08-10T14:54:46.667Z,100.00
2022-08-10T15:00:52.510Z,100.00
2022-08-10T15:07:00.996Z,100.00
2022-08-10T15:13:33.712Z,100.00
2022-08-10T15:20:02.909Z,100.00
2022-08-10T15:26:10.921Z,100.00
2022-08-10T15:32:31.001Z,100.00
2022-08-10T15:38:42.697Z,100.00
2022-08-10T15:44:49.957Z,100.00
2022-08-10T15:51:05.917Z,100.00
2022-08-10T15:57:14.402Z,100.00
2022-08-10T16:03:24.366Z,100.00
2022-08-10T16:10:23.039Z,100.00
2022-08-10T16:15:59.918Z,100.00
2022-08-10T16:22:35.652Z,100.00
2022-08-10T16:28:36.949Z,100.00
2022-08-10T16:34:42.630Z,100.00
2022-08-10T16:40:50.009Z,100.00
2022-08-10T16:46:56.227Z,100.00
2022-08-10T16:53:03.235Z,100.00
2022-08-10T16:59:09.452Z,100.00
2022-08-10T17:06:07.375Z,100.00
2022-08-10T17:11:52.741Z,100.00
2022-08-10T17:18:00.178Z,100.00
2022-08-10T17:24:07.578Z,100.00
2022-08-10T17:30:33.980Z,100.00
2022-08-10T17:36:42.625Z,100.00
2022-08-10T17:42:49.645Z,100.00
2022-08-10T17:48:54.761Z,100.00
2022-08-10T17:55:00.883Z,100.00
2022-08-10T18:01:38.317Z,100.00
2022-08-10T18:07:36.029Z,100.00
2022-08-10T18:13:55.474Z,100.00
2022-08-10T18:20:04.239Z,100.00
2022-08-10T18:26:12.021Z,100.00
2022-08-10T18:32:17.609Z,100.00
2022-08-10T18:38:23.376Z,100.00
2022-08-10T18:44:35.021Z,100.00
2022-08-10T18:50:45.198Z,100.00
2022-08-10T18:56:57.477Z,100.00
2022-08-10T19:03:14.041Z,100.00
2022-08-10T19:09:45.904Z,100.00
2022-08-10T19:16:02.387Z,100.00
2022-08-10T19:22:10.248Z,100.00
2022-08-10T19:28:23.681Z,100.00
2022-08-10T19:34:51.409Z,100.00
2022-08-10T19:41:09.493Z,48.43
2022-08-10T19:47:23.337Z,55.97
2022-08-10T20:00:16.935Z,56.24
2022-08-10T20:06:48.336Z,55.94
2022-08-10T20:13:03.750Z,56.30
2022-08-10T20:19:13.784Z,56.36
2022-08-10T20:25:22.025Z,56.61
2022-08-10T20:31:42.241Z,57.08
2022-08-10T20:38:04.021Z,56.87
2022-08-10T20:44:16.687Z,56.77
2022-08-10T20:50:29.262Z,56.39
2022-08-10T20:56:43.727Z,56.39
2022-08-10T21:03:20.757Z,56.46
2022-08-10T21:09:50.695Z,56.58
2022-08-10T21:16:04.685Z,56.49
2022-08-10T21:22:16.025Z,56.30
2022-08-10T21:28:50.080Z,56.93
2022-08-10T21:35:10.452Z,57.18
2022-08-10T21:41:58.808Z,57.00
2022-08-10T21:48:30.303Z,57.36
2022-08-10T21:55:00.593Z,57.06
2022-08-10T22:01:39.299Z,56.41
2022-08-10T22:08:01.087Z,56.44
2022-08-10T22:14:25.633Z,56.74
2022-08-10T22:20:50.426Z,56.45
2022-08-10T22:27:46.514Z,56.99
2022-08-10T22:34:31.804Z,56.81
2022-08-10T22:40:52.920Z,57.65
2022-08-10T22:47:16.167Z,56.53
2022-08-10T22:53:26.779Z,56.79
2022-08-10T22:59:32.952Z,56.48
2022-08-10T23:05:39.762Z,56.71
2022-08-10T23:11:46.217Z,56.97
2022-08-10T23:18:11.340Z,57.13
2022-08-10T23:24:16.439Z,57.47
2022-08-10T23:30:21.674Z,57.32
2022-08-10T23:36:35.669Z,56.73
2022-08-10T23:42:41.696Z,56.96
2022-08-10T23:48:48.287Z,56.95
2022-08-10T23:54:57.335Z,56.98
